Albert, Kansas
Current Conditions -  °F | °C
As of 7:35 AM on Sunday 21 Dec 2014 (Local Time) from KGBD Reporting Station
Overcast Overcast  
Wind Chill:   Ceiling: 600
Heat Index:   Visibility: 4mi
Dew Point:   Wind: 12mph
Humidity: 87%   Direction: 180°S
Pressure: 29.91"   Gusts: NA
Location:  38.45°N, 99.01°W
Report Text: KGBD 211335Z AUTO 18010KT 4SM OVC006 04/02 A2991 RMK AO1
Loading
Personal Weather Stations






























Interactive Weather Map New forecast layout! Learn more

10-Day Weather Forecast

Advertisements
Track Severe Weather on mobile